sensor_id;sensor_type;location;lat;lon;timestamp;P1;durP1;ratioP1;P2;durP2;ratioP2
9942;SDS011;5010;45.080;7.634;2023-03-23T00:01:21;13.77;;;12.07;;
9942;SDS011;5010;45.080;7.634;2023-03-23T00:03:52;10.77;;;10.02;;
9942;SDS011;5010;45.080;7.634;2023-03-23T00:06:22;13.55;;;12.15;;
9942;SDS011;5010;45.080;7.634;2023-03-23T00:08:51;12.68;;;10.88;;
9942;SDS011;5010;45.080;7.634;2023-03-23T00:11:25;13.02;;;12.32;;
9942;SDS011;5010;45.080;7.634;2023-03-23T00:13:54;13.70;;;10.82;;
9942;SDS011;5010;45.080;7.634;2023-03-23T00:16:26;12.93;;;10.20;;
9942;SDS011;5010;45.080;7.634;2023-03-23T00:18:56;10.45;;;9.40;;
9942;SDS011;5010;45.080;7.634;2023-03-23T00:21:25;13.25;;;10.75;;
9942;SDS011;5010;45.080;7.634;2023-03-23T00:23:59;10.63;;;10.02;;
9942;SDS011;5010;45.080;7.634;2023-03-23T00:26:31;13.18;;;10.38;;
9942;SDS011;5010;45.080;7.634;2023-03-23T00:28:59;13.40;;;11.30;;
9942;SDS011;5010;45.080;7.634;2023-03-23T00:31:27;10.43;;;9.63;;
9942;SDS011;5010;45.080;7.634;2023-03-23T00:33:58;11.32;;;10.73;;
9942;SDS011;5010;45.080;7.634;2023-03-23T00:36:28;12.32;;;10.93;;
9942;SDS011;5010;45.080;7.634;2023-03-23T00:38:56;16.92;;;11.05;;
9942;SDS011;5010;45.080;7.634;2023-03-23T00:41:25;11.93;;;11.32;;
9942;SDS011;5010;45.080;7.634;2023-03-23T00:43:54;11.80;;;10.30;;
9942;SDS011;5010;45.080;7.634;2023-03-23T00:46:21;12.52;;;11.07;;
9942;SDS011;5010;45.080;7.634;2023-03-23T00:48:48;12.95;;;11.18;;
9942;SDS011;5010;45.080;7.634;2023-03-23T00:51:15;10.52;;;9.40;;
9942;SDS011;5010;45.080;7.634;2023-03-23T00:53:43;14.32;;;10.48;;
9942;SDS011;5010;45.080;7.634;2023-03-23T00:56:10;11.80;;;10.93;;
9942;SDS011;5010;45.080;7.634;2023-03-23T00:58:38;11.57;;;10.20;;
9942;SDS011;5010;45.080;7.634;2023-03-23T01:01:06;11.77;;;10.60;;
9942;SDS011;5010;45.080;7.634;2023-03-23T01:03:33;10.43;;;9.90;;
9942;SDS011;5010;45.080;7.634;2023-03-23T01:06:03;10.77;;;10.25;;
9942;SDS011;5010;45.080;7.634;2023-03-23T01:08:33;12.30;;;10.57;;
9942;SDS011;5010;45.080;7.634;2023-03-23T01:11:02;10.77;;;9.95;;
9942;SDS011;5010;45.080;7.634;2023-03-23T01:13:30;11.68;;;11.07;;
9942;SDS011;5010;45.080;7.634;2023-03-23T01:15:58;11.40;;;8.75;;
9942;SDS011;5010;45.080;7.634;2023-03-23T01:18:25;11.30;;;9.50;;
9942;SDS011;5010;45.080;7.634;2023-03-23T01:20:52;12.32;;;10.35;;
9942;SDS011;5010;45.080;7.634;2023-03-23T01:23:19;12.38;;;10.93;;
9942;SDS011;5010;45.080;7.634;2023-03-23T01:25:46;12.25;;;10.60;;
9942;SDS011;5010;45.080;7.634;2023-03-23T01:28:14;11.38;;;10.13;;
9942;SDS011;5010;45.080;7.634;2023-03-23T01:30:41;11.52;;;10.18;;
9942;SDS011;5010;45.080;7.634;2023-03-23T01:33:09;8.57;;;8.13;;
9942;SDS011;5010;45.080;7.634;2023-03-23T01:35:37;11.20;;;10.60;;
9942;SDS011;5010;45.080;7.634;2023-03-23T01:38:04;10.82;;;9.75;;
9942;SDS011;5010;45.080;7.634;2023-03-23T01:40:31;12.20;;;9.85;;
9942;SDS011;5010;45.080;7.634;2023-03-23T01:42:57;10.95;;;9.25;;
9942;SDS011;5010;45.080;7.634;2023-03-23T01:45:29;11.68;;;10.35;;
9942;SDS011;5010;45.080;7.634;2023-03-23T01:48:04;10.63;;;8.80;;
9942;SDS011;5010;45.080;7.634;2023-03-23T01:50:37;12.57;;;9.05;;
9942;SDS011;5010;45.080;7.634;2023-03-23T01:53:10;10.00;;;8.52;;
9942;SDS011;5010;45.080;7.634;2023-03-23T01:55:38;10.50;;;9.35;;
9942;SDS011;5010;45.080;7.634;2023-03-23T01:58:07;10.90;;;8.45;;
9942;SDS011;5010;45.080;7.634;2023-03-23T02:00:35;10.50;;;8.75;;
9942;SDS011;5010;45.080;7.634;2023-03-23T02:03:05;11.48;;;10.32;;
9942;SDS011;5010;45.080;7.634;2023-03-23T02:05:36;10.40;;;9.80;;
9942;SDS011;5010;45.080;7.634;2023-03-23T02:08:07;11.25;;;8.90;;
9942;SDS011;5010;45.080;7.634;2023-03-23T02:10:36;12.50;;;10.10;;
9942;SDS011;5010;45.080;7.634;2023-03-23T02:13:05;10.10;;;9.55;;
9942;SDS011;5010;45.080;7.634;2023-03-23T02:15:35;10.30;;;9.30;;
9942;SDS011;5010;45.080;7.634;2023-03-23T02:18:10;11.52;;;10.93;;
9942;SDS011;5010;45.080;7.634;2023-03-23T02:20:56;9.68;;;8.93;;
9942;SDS011;5010;45.080;7.634;2023-03-23T02:23:52;12.52;;;9.32;;
9942;SDS011;5010;45.080;7.634;2023-03-23T02:26:38;10.80;;;9.65;;
9942;SDS011;5010;45.080;7.634;2023-03-23T02:29:18;9.95;;;9.07;;
9942;SDS011;5010;45.080;7.634;2023-03-23T02:32:10;11.32;;;10.57;;
9942;SDS011;5010;45.080;7.634;2023-03-23T02:34:44;12.80;;;10.93;;
9942;SDS011;5010;45.080;7.634;2023-03-23T02:37:16;11.05;;;10.10;;
9942;SDS011;5010;45.080;7.634;2023-03-23T02:39:51;12.77;;;9.95;;
9942;SDS011;5010;45.080;7.634;2023-03-23T02:42:23;11.52;;;10.50;;
9942;SDS011;5010;45.080;7.634;2023-03-23T02:44:54;9.93;;;8.95;;
9942;SDS011;5010;45.080;7.634;2023-03-23T02:47:24;9.98;;;8.98;;
9942;SDS011;5010;45.080;7.634;2023-03-23T02:49:54;10.85;;;9.02;;
9942;SDS011;5010;45.080;7.634;2023-03-23T02:52:24;13.73;;;10.18;;
9942;SDS011;5010;45.080;7.634;2023-03-23T02:54:53;11.95;;;10.32;;
9942;SDS011;5010;45.080;7.634;2023-03-23T02:57:23;12.18;;;9.68;;
9942;SDS011;5010;45.080;7.634;2023-03-23T02:59:52;11.20;;;8.57;;
9942;SDS011;5010;45.080;7.634;2023-03-23T03:02:20;10.90;;;10.30;;
9942;SDS011;5010;45.080;7.634;2023-03-23T03:04:52;11.13;;;10.27;;
9942;SDS011;5010;45.080;7.634;2023-03-23T03:07:30;11.23;;;9.50;;
9942;SDS011;5010;45.080;7.634;2023-03-23T03:10:04;10.43;;;9.70;;
9942;SDS011;5010;45.080;7.634;2023-03-23T03:12:41;12.25;;;9.75;;
9942;SDS011;5010;45.080;7.634;2023-03-23T03:15:15;11.73;;;10.13;;
9942;SDS011;5010;45.080;7.634;2023-03-23T03:17:51;11.05;;;9.07;;
9942;SDS011;5010;45.080;7.634;2023-03-23T03:20:23;13.45;;;10.68;;
9942;SDS011;5010;45.080;7.634;2023-03-23T03:22:53;11.60;;;9.82;;
9942;SDS011;5010;45.080;7.634;2023-03-23T03:25:21;11.88;;;10.85;;
9942;SDS011;5010;45.080;7.634;2023-03-23T03:27:49;10.75;;;10.13;;
9942;SDS011;5010;45.080;7.634;2023-03-23T03:30:20;12.50;;;11.43;;
9942;SDS011;5010;45.080;7.634;2023-03-23T03:32:51;10.95;;;9.55;;
9942;SDS011;5010;45.080;7.634;2023-03-23T03:35:20;9.98;;;9.45;;
9942;SDS011;5010;45.080;7.634;2023-03-23T03:37:49;13.73;;;9.85;;
9942;SDS011;5010;45.080;7.634;2023-03-23T03:40:17;11.70;;;10.10;;
9942;SDS011;5010;45.080;7.634;2023-03-23T03:42:46;11.23;;;10.65;;
9942;SDS011;5010;45.080;7.634;2023-03-23T03:45:15;10.93;;;10.32;;
9942;SDS011;5010;45.080;7.634;2023-03-23T03:47:43;10.18;;;9.32;;
9942;SDS011;5010;45.080;7.634;2023-03-23T03:50:10;10.82;;;9.25;;
9942;SDS011;5010;45.080;7.634;2023-03-23T03:52:37;9.38;;;8.70;;
9942;SDS011;5010;45.080;7.634;2023-03-23T03:55:07;11.27;;;9.27;;
9942;SDS011;5010;45.080;7.634;2023-03-23T03:57:35;11.73;;;9.60;;
9942;SDS011;5010;45.080;7.634;2023-03-23T04:00:03;11.80;;;8.90;;
9942;SDS011;5010;45.080;7.634;2023-03-23T04:02:39;14.02;;;10.68;;
9942;SDS011;5010;45.080;7.634;2023-03-23T04:05:06;11.15;;;9.57;;
9942;SDS011;5010;45.080;7.634;2023-03-23T04:07:35;11.88;;;10.75;;
9942;SDS011;5010;45.080;7.634;2023-03-23T04:10:04;9.85;;;9.35;;
9942;SDS011;5010;45.080;7.634;2023-03-23T04:12:34;11.45;;;9.32;;
9942;SDS011;5010;45.080;7.634;2023-03-23T04:15:01;10.07;;;9.23;;
9942;SDS011;5010;45.080;7.634;2023-03-23T04:17:28;11.20;;;10.60;;
9942;SDS011;5010;45.080;7.634;2023-03-23T04:19:55;11.20;;;9.32;;
9942;SDS011;5010;45.080;7.634;2023-03-23T04:22:24;11.85;;;11.25;;
9942;SDS011;5010;45.080;7.634;2023-03-23T04:24:55;9.65;;;9.15;;
9942;SDS011;5010;45.080;7.634;2023-03-23T04:27:26;12.18;;;10.75;;
9942;SDS011;5010;45.080;7.634;2023-03-23T04:29:54;11.43;;;10.30;;
9942;SDS011;5010;45.080;7.634;2023-03-23T04:32:23;10.82;;;10.25;;
9942;SDS011;5010;45.080;7.634;2023-03-23T04:34:50;12.55;;;9.98;;
9942;SDS011;5010;45.080;7.634;2023-03-23T04:37:17;11.13;;;10.52;;
9942;SDS011;5010;45.080;7.634;2023-03-23T04:39:43;10.95;;;10.05;;
9942;SDS011;5010;45.080;7.634;2023-03-23T04:42:11;9.88;;;9.32;;
9942;SDS011;5010;45.080;7.634;2023-03-23T04:44:40;10.20;;;9.00;;
9942;SDS011;5010;45.080;7.634;2023-03-23T04:47:08;9.00;;;8.52;;
9942;SDS011;5010;45.080;7.634;2023-03-23T04:49:35;13.75;;;8.40;;
9942;SDS011;5010;45.080;7.634;2023-03-23T04:52:02;13.13;;;9.98;;
9942;SDS011;5010;45.080;7.634;2023-03-23T04:54:29;10.40;;;9.02;;
9942;SDS011;5010;45.080;7.634;2023-03-23T04:56:56;12.50;;;9.57;;
9942;SDS011;5010;45.080;7.634;2023-03-23T04:59:24;9.98;;;9.23;;
9942;SDS011;5010;45.080;7.634;2023-03-23T05:01:54;10.07;;;8.75;;
9942;SDS011;5010;45.080;7.634;2023-03-23T05:04:21;11.25;;;10.65;;
9942;SDS011;5010;45.080;7.634;2023-03-23T05:06:50;11.60;;;10.55;;
9942;SDS011;5010;45.080;7.634;2023-03-23T05:09:17;10.60;;;10.00;;
9942;SDS011;5010;45.080;7.634;2023-03-23T05:11:44;10.18;;;8.95;;
9942;SDS011;5010;45.080;7.634;2023-03-23T05:14:11;10.27;;;9.27;;
9942;SDS011;5010;45.080;7.634;2023-03-23T05:16:38;10.35;;;9.57;;
9942;SDS011;5010;45.080;7.634;2023-03-23T05:19:06;12.13;;;10.20;;
9942;SDS011;5010;45.080;7.634;2023-03-23T05:21:33;9.98;;;9.48;;
9942;SDS011;5010;45.080;7.634;2023-03-23T05:24:00;11.63;;;9.25;;
9942;SDS011;5010;45.080;7.634;2023-03-23T05:26:27;13.18;;;9.45;;
9942;SDS011;5010;45.080;7.634;2023-03-23T05:28:54;11.23;;;9.98;;
9942;SDS011;5010;45.080;7.634;2023-03-23T05:31:22;11.23;;;9.88;;
9942;SDS011;5010;45.080;7.634;2023-03-23T05:33:49;11.73;;;8.00;;
9942;SDS011;5010;45.080;7.634;2023-03-23T05:36:17;13.48;;;9.05;;
9942;SDS011;5010;45.080;7.634;2023-03-23T05:38:45;12.65;;;8.57;;
9942;SDS011;5010;45.080;7.634;2023-03-23T05:41:12;10.93;;;9.68;;
9942;SDS011;5010;45.080;7.634;2023-03-23T05:43:39;10.55;;;10.00;;
9942;SDS011;5010;45.080;7.634;2023-03-23T05:46:06;11.68;;;11.07;;
9942;SDS011;5010;45.080;7.634;2023-03-23T05:48:34;10.80;;;9.52;;
9942;SDS011;5010;45.080;7.634;2023-03-23T05:51:01;10.15;;;9.55;;
9942;SDS011;5010;45.080;7.634;2023-03-23T05:53:30;9.88;;;8.80;;
9942;SDS011;5010;45.080;7.634;2023-03-23T05:56:00;9.93;;;8.75;;
9942;SDS011;5010;45.080;7.634;2023-03-23T05:58:28;11.73;;;11.13;;
9942;SDS011;5010;45.080;7.634;2023-03-23T06:00:55;11.35;;;9.70;;
9942;SDS011;5010;45.080;7.634;2023-03-23T06:03:22;11.73;;;10.60;;
9942;SDS011;5010;45.080;7.634;2023-03-23T06:05:49;12.00;;;10.20;;
9942;SDS011;5010;45.080;7.634;2023-03-23T06:08:17;10.18;;;9.68;;
9942;SDS011;5010;45.080;7.634;2023-03-23T06:10:45;10.75;;;9.10;;
9942;SDS011;5010;45.080;7.634;2023-03-23T06:13:13;10.60;;;10.05;;
9942;SDS011;5010;45.080;7.634;2023-03-23T06:15:40;10.43;;;8.63;;
9942;SDS011;5010;45.080;7.634;2023-03-23T06:18:06;11.95;;;11.18;;
9942;SDS011;5010;45.080;7.634;2023-03-23T06:20:33;11.18;;;10.57;;
9942;SDS011;5010;45.080;7.634;2023-03-23T06:23:01;11.25;;;9.50;;
9942;SDS011;5010;45.080;7.634;2023-03-23T06:25:28;10.43;;;9.70;;
9942;SDS011;5010;45.080;7.634;2023-03-23T06:27:57;12.00;;;10.10;;
9942;SDS011;5010;45.080;7.634;2023-03-23T06:30:24;15.30;;;12.02;;
9942;SDS011;5010;45.080;7.634;2023-03-23T06:32:51;10.40;;;9.85;;
9942;SDS011;5010;45.080;7.634;2023-03-23T06:35:19;10.63;;;9.52;;
9942;SDS011;5010;45.080;7.634;2023-03-23T06:37:46;11.15;;;9.73;;
9942;SDS011;5010;45.080;7.634;2023-03-23T06:40:13;11.70;;;9.98;;
9942;SDS011;5010;45.080;7.634;2023-03-23T06:42:43;12.18;;;9.98;;
9942;SDS011;5010;45.080;7.634;2023-03-23T06:45:11;10.32;;;9.38;;
9942;SDS011;5010;45.080;7.634;2023-03-23T06:47:38;12.43;;;10.00;;
9942;SDS011;5010;45.080;7.634;2023-03-23T06:50:06;8.88;;;8.38;;
9942;SDS011;5010;45.080;7.634;2023-03-23T06:52:33;11.25;;;9.10;;
9942;SDS011;5010;45.080;7.634;2023-03-23T06:55:00;9.52;;;9.02;;
9942;SDS011;5010;45.080;7.634;2023-03-23T06:57:27;10.43;;;9.90;;
9942;SDS011;5010;45.080;7.634;2023-03-23T06:59:54;12.50;;;10.00;;
9942;SDS011;5010;45.080;7.634;2023-03-23T07:02:22;9.98;;;9.20;;
9942;SDS011;5010;45.080;7.634;2023-03-23T07:04:50;9.63;;;8.68;;
9942;SDS011;5010;45.080;7.634;2023-03-23T07:07:19;10.65;;;9.32;;
9942;SDS011;5010;45.080;7.634;2023-03-23T07:09:46;11.00;;;10.40;;
9942;SDS011;5010;45.080;7.634;2023-03-23T07:12:13;12.18;;;9.80;;
9942;SDS011;5010;45.080;7.634;2023-03-23T07:14:40;9.93;;;9.20;;
9942;SDS011;5010;45.080;7.634;2023-03-23T07:17:07;10.55;;;8.70;;
9942;SDS011;5010;45.080;7.634;2023-03-23T07:19:35;11.07;;;10.48;;
9942;SDS011;5010;45.080;7.634;2023-03-23T07:22:03;11.88;;;9.43;;
9942;SDS011;5010;45.080;7.634;2023-03-23T07:24:32;19.77;;;12.80;;
9942;SDS011;5010;45.080;7.634;2023-03-23T07:26:59;11.05;;;9.75;;
9942;SDS011;5010;45.080;7.634;2023-03-23T07:29:26;10.57;;;10.00;;
9942;SDS011;5010;45.080;7.634;2023-03-23T07:31:53;11.05;;;10.02;;
9942;SDS011;5010;45.080;7.634;2023-03-23T07:34:20;15.90;;;10.90;;
9942;SDS011;5010;45.080;7.634;2023-03-23T07:36:48;10.85;;;10.25;;
9942;SDS011;5010;45.080;7.634;2023-03-23T07:39:15;9.07;;;8.05;;
9942;SDS011;5010;45.080;7.634;2023-03-23T07:41:42;11.23;;;10.00;;
9942;SDS011;5010;45.080;7.634;2023-03-23T07:44:09;11.23;;;9.48;;
9942;SDS011;5010;45.080;7.634;2023-03-23T07:46:36;9.57;;;8.70;;
9942;SDS011;5010;45.080;7.634;2023-03-23T07:49:03;12.23;;;10.55;;
9942;SDS011;5010;45.080;7.634;2023-03-23T07:51:31;11.23;;;10.15;;
9942;SDS011;5010;45.080;7.634;2023-03-23T07:53:59;13.68;;;9.90;;
9942;SDS011;5010;45.080;7.634;2023-03-23T07:56:27;11.32;;;10.50;;
9942;SDS011;5010;45.080;7.634;2023-03-23T07:58:54;12.98;;;9.98;;
9942;SDS011;5010;45.080;7.634;2023-03-23T08:01:21;10.35;;;9.80;;
9942;SDS011;5010;45.080;7.634;2023-03-23T08:03:48;10.43;;;9.60;;
9942;SDS011;5010;45.080;7.634;2023-03-23T08:06:16;14.30;;;13.60;;
9942;SDS011;5010;45.080;7.634;2023-03-23T08:08:43;12.93;;;9.82;;
9942;SDS011;5010;45.080;7.634;2023-03-23T08:11:12;9.40;;;8.65;;
9942;SDS011;5010;45.080;7.634;2023-03-23T08:13:40;10.43;;;9.90;;
9942;SDS011;5010;45.080;7.634;2023-03-23T08:16:07;11.23;;;9.60;;
9942;SDS011;5010;45.080;7.634;2023-03-23T08:18:34;13.35;;;10.57;;
9942;SDS011;5010;45.080;7.634;2023-03-23T08:21:02;11.60;;;10.30;;
9942;SDS011;5010;45.080;7.634;2023-03-23T08:23:29;14.55;;;11.57;;
9942;SDS011;5010;45.080;7.634;2023-03-23T08:25:57;14.32;;;9.77;;
9942;SDS011;5010;45.080;7.634;2023-03-23T08:28:26;12.95;;;11.93;;
9942;SDS011;5010;45.080;7.634;2023-03-23T08:30:53;11.65;;;10.77;;
9942;SDS011;5010;45.080;7.634;2023-03-23T08:33:20;14.60;;;11.50;;
9942;SDS011;5010;45.080;7.634;2023-03-23T08:35:53;15.60;;;10.85;;
9942;SDS011;5010;45.080;7.634;2023-03-23T08:38:22;14.30;;;10.38;;
9942;SDS011;5010;45.080;7.634;2023-03-23T08:40:49;14.52;;;11.65;;
9942;SDS011;5010;45.080;7.634;2023-03-23T08:43:16;13.48;;;9.40;;
9942;SDS011;5010;45.080;7.634;2023-03-23T08:45:45;15.85;;;11.45;;
9942;SDS011;5010;45.080;7.634;2023-03-23T08:48:12;12.20;;;11.60;;
9942;SDS011;5010;45.080;7.634;2023-03-23T08:50:40;13.25;;;11.45;;
9942;SDS011;5010;45.080;7.634;2023-03-23T08:53:07;15.00;;;11.63;;
9942;SDS011;5010;45.080;7.634;2023-03-23T08:55:34;13.00;;;12.10;;
9942;SDS011;5010;45.080;7.634;2023-03-23T08:58:01;10.25;;;9.75;;
9942;SDS011;5010;45.080;7.634;2023-03-23T09:00:28;17.80;;;11.25;;
9942;SDS011;5010;45.080;7.634;2023-03-23T09:02:56;17.25;;;14.50;;
9942;SDS011;5010;45.080;7.634;2023-03-23T09:05:25;29.38;;;18.10;;
9942;SDS011;5010;45.080;7.634;2023-03-23T09:07:54;23.40;;;18.63;;
9942;SDS011;5010;45.080;7.634;2023-03-23T09:10:24;35.85;;;20.13;;
9942;SDS011;5010;45.080;7.634;2023-03-23T09:12:52;22.85;;;19.98;;
9942;SDS011;5010;45.080;7.634;2023-03-23T09:15:19;21.17;;;18.60;;
9942;SDS011;5010;45.080;7.634;2023-03-23T09:17:47;22.20;;;17.08;;
9942;SDS011;5010;45.080;7.634;2023-03-23T09:20:18;18.30;;;16.17;;
9942;SDS011;5010;45.080;7.634;2023-03-23T09:22:47;22.25;;;17.00;;
9942;SDS011;5010;45.080;7.634;2023-03-23T09:25:16;18.27;;;15.30;;
9942;SDS011;5010;45.080;7.634;2023-03-23T09:27:47;17.58;;;16.17;;
9942;SDS011;5010;45.080;7.634;2023-03-23T09:30:17;26.65;;;16.95;;
9942;SDS011;5010;45.080;7.634;2023-03-23T09:32:45;19.15;;;14.23;;
9942;SDS011;5010;45.080;7.634;2023-03-23T09:35:13;16.85;;;14.85;;
9942;SDS011;5010;45.080;7.634;2023-03-23T09:37:43;19.77;;;15.63;;
9942;SDS011;5010;45.080;7.634;2023-03-23T09:40:11;17.90;;;13.52;;
9942;SDS011;5010;45.080;7.634;2023-03-23T09:42:56;15.23;;;14.45;;
9942;SDS011;5010;45.080;7.634;2023-03-23T09:45:39;15.65;;;13.00;;
9942;SDS011;5010;45.080;7.634;2023-03-23T09:48:18;16.65;;;11.85;;
9942;SDS011;5010;45.080;7.634;2023-03-23T09:50:54;16.15;;;12.98;;
9942;SDS011;5010;45.080;7.634;2023-03-23T09:53:28;13.93;;;12.60;;
9942;SDS011;5010;45.080;7.634;2023-03-23T09:56:00;14.80;;;12.50;;
9942;SDS011;5010;45.080;7.634;2023-03-23T09:58:29;13.60;;;11.73;;
9942;SDS011;5010;45.080;7.634;2023-03-23T10:01:02;14.48;;;13.75;;
9942;SDS011;5010;45.080;7.634;2023-03-23T10:03:33;14.68;;;13.93;;
9942;SDS011;5010;45.080;7.634;2023-03-23T10:06:05;15.15;;;11.98;;
9942;SDS011;5010;45.080;7.634;2023-03-23T10:08:37;16.17;;;14.73;;
9942;SDS011;5010;45.080;7.634;2023-03-23T10:11:10;14.55;;;12.70;;
9942;SDS011;5010;45.080;7.634;2023-03-23T10:13:49;17.20;;;13.70;;
9942;SDS011;5010;45.080;7.634;2023-03-23T10:16:23;15.20;;;12.25;;
9942;SDS011;5010;45.080;7.634;2023-03-23T10:18:55;13.07;;;12.38;;
9942;SDS011;5010;45.080;7.634;2023-03-23T10:21:25;14.18;;;13.48;;
9942;SDS011;5010;45.080;7.634;2023-03-23T10:23:58;18.13;;;12.55;;
9942;SDS011;5010;45.080;7.634;2023-03-23T10:26:32;14.38;;;12.73;;
9942;SDS011;5010;45.080;7.634;2023-03-23T10:29:08;14.93;;;13.80;;
9942;SDS011;5010;45.080;7.634;2023-03-23T10:31:39;18.80;;;12.88;;
9942;SDS011;5010;45.080;7.634;2023-03-23T10:34:10;14.25;;;13.25;;
9942;SDS011;5010;45.080;7.634;2023-03-23T10:36:48;15.68;;;13.63;;
9942;SDS011;5010;45.080;7.634;2023-03-23T10:39:23;13.45;;;12.18;;
9942;SDS011;5010;45.080;7.634;2023-03-23T10:41:53;14.88;;;13.82;;
9942;SDS011;5010;45.080;7.634;2023-03-23T10:44:21;16.92;;;14.05;;
9942;SDS011;5010;45.080;7.634;2023-03-23T10:46:53;15.48;;;13.93;;
9942;SDS011;5010;45.080;7.634;2023-03-23T10:49:25;15.68;;;14.57;;
9942;SDS011;5010;45.080;7.634;2023-03-23T10:51:57;15.18;;;14.38;;
9942;SDS011;5010;45.080;7.634;2023-03-23T10:54:35;15.52;;;13.63;;
9942;SDS011;5010;45.080;7.634;2023-03-23T10:57:12;15.57;;;14.05;;
9942;SDS011;5010;45.080;7.634;2023-03-23T10:59:40;17.77;;;13.25;;
9942;SDS011;5010;45.080;7.634;2023-03-23T11:02:10;13.27;;;12.50;;
9942;SDS011;5010;45.080;7.634;2023-03-23T11:04:44;16.65;;;13.98;;
9942;SDS011;5010;45.080;7.634;2023-03-23T11:07:13;15.55;;;12.88;;
9942;SDS011;5010;45.080;7.634;2023-03-23T11:09:57;14.80;;;12.40;;
9942;SDS011;5010;45.080;7.634;2023-03-23T11:12:34;14.60;;;13.45;;
9942;SDS011;5010;45.080;7.634;2023-03-23T11:15:14;14.50;;;13.80;;
9942;SDS011;5010;45.080;7.634;2023-03-23T11:17:54;14.23;;;13.45;;
9942;SDS011;5010;45.080;7.634;2023-03-23T11:20:22;19.27;;;14.32;;
9942;SDS011;5010;45.080;7.634;2023-03-23T11:22:49;13.20;;;12.15;;
9942;SDS011;5010;45.080;7.634;2023-03-23T11:25:17;13.88;;;12.98;;
9942;SDS011;5010;45.080;7.634;2023-03-23T11:27:44;13.65;;;12.10;;
9942;SDS011;5010;45.080;7.634;2023-03-23T11:30:18;13.43;;;12.30;;
9942;SDS011;5010;45.080;7.634;2023-03-23T11:32:50;12.55;;;11.38;;
9942;SDS011;5010;45.080;7.634;2023-03-23T11:35:18;15.18;;;11.07;;
9942;SDS011;5010;45.080;7.634;2023-03-23T11:37:48;14.80;;;13.80;;
9942;SDS011;5010;45.080;7.634;2023-03-23T11:40:19;16.33;;;12.50;;
9942;SDS011;5010;45.080;7.634;2023-03-23T11:42:49;14.43;;;13.73;;
9942;SDS011;5010;45.080;7.634;2023-03-23T11:45:25;14.07;;;13.38;;
9942;SDS011;5010;45.080;7.634;2023-03-23T11:48:01;14.27;;;13.45;;
9942;SDS011;5010;45.080;7.634;2023-03-23T11:50:47;12.60;;;11.60;;
9942;SDS011;5010;45.080;7.634;2023-03-23T11:53:20;13.93;;;12.80;;
9942;SDS011;5010;45.080;7.634;2023-03-23T11:56:00;15.60;;;13.10;;
9942;SDS011;5010;45.080;7.634;2023-03-23T11:58:32;12.55;;;11.93;;
9942;SDS011;5010;45.080;7.634;2023-03-23T12:01:04;16.70;;;14.07;;
9942;SDS011;5010;45.080;7.634;2023-03-23T12:03:58;14.25;;;13.52;;
9942;SDS011;5010;45.080;7.634;2023-03-23T12:06:32;13.32;;;11.68;;
9942;SDS011;5010;45.080;7.634;2023-03-23T12:09:11;14.07;;;13.38;;
9942;SDS011;5010;45.080;7.634;2023-03-23T12:11:52;13.38;;;11.50;;
9942;SDS011;5010;45.080;7.634;2023-03-23T12:14:30;12.95;;;12.13;;
9942;SDS011;5010;45.080;7.634;2023-03-23T12:17:07;13.52;;;12.82;;
9942;SDS011;5010;45.080;7.634;2023-03-23T12:19:51;12.25;;;11.60;;
9942;SDS011;5010;45.080;7.634;2023-03-23T12:22:37;14.82;;;14.02;;
9942;SDS011;5010;45.080;7.634;2023-03-23T12:25:17;13.85;;;13.15;;
9942;SDS011;5010;45.080;7.634;2023-03-23T12:28:02;13.18;;;11.90;;
9942;SDS011;5010;45.080;7.634;2023-03-23T12:30:38;17.58;;;14.00;;
9942;SDS011;5010;45.080;7.634;2023-03-23T12:33:13;13.73;;;13.02;;
9942;SDS011;5010;45.080;7.634;2023-03-23T12:35:49;13.70;;;13.00;;
9942;SDS011;5010;45.080;7.634;2023-03-23T12:38:30;16.02;;;12.13;;
9942;SDS011;5010;45.080;7.634;2023-03-23T12:41:09;14.02;;;13.32;;
9942;SDS011;5010;45.080;7.634;2023-03-23T12:43:45;16.55;;;15.18;;
9942;SDS011;5010;45.080;7.634;2023-03-23T12:46:22;14.52;;;13.40;;
9942;SDS011;5010;45.080;7.634;2023-03-23T12:49:09;13.82;;;12.05;;
9942;SDS011;5010;45.080;7.634;2023-03-23T12:51:43;13.60;;;12.38;;
9942;SDS011;5010;45.080;7.634;2023-03-23T12:54:15;15.65;;;12.75;;
9942;SDS011;5010;45.080;7.634;2023-03-23T12:56:50;9.75;;;8.95;;
9942;SDS011;5010;45.080;7.634;2023-03-23T12:59:23;11.93;;;10.93;;
9942;SDS011;5010;45.080;7.634;2023-03-23T13:01:56;13.43;;;12.73;;
9942;SDS011;5010;45.080;7.634;2023-03-23T13:04:30;11.82;;;10.48;;
9942;SDS011;5010;45.080;7.634;2023-03-23T13:07:02;14.30;;;12.40;;
9942;SDS011;5010;45.080;7.634;2023-03-23T13:09:39;12.48;;;11.85;;
9942;SDS011;5010;45.080;7.634;2023-03-23T13:12:13;12.18;;;11.30;;
9942;SDS011;5010;45.080;7.634;2023-03-23T13:14:45;11.52;;;10.93;;
9942;SDS011;5010;45.080;7.634;2023-03-23T13:17:22;13.63;;;12.93;;
9942;SDS011;5010;45.080;7.634;2023-03-23T13:19:58;12.75;;;11.32;;
9942;SDS011;5010;45.080;7.634;2023-03-23T13:22:39;13.88;;;12.20;;
9942;SDS011;5010;45.080;7.634;2023-03-23T13:25:15;13.38;;;12.68;;
9942;SDS011;5010;45.080;7.634;2023-03-23T13:27:55;13.95;;;11.38;;
9942;SDS011;5010;45.080;7.634;2023-03-23T13:30:25;12.02;;;11.38;;
9942;SDS011;5010;45.080;7.634;2023-03-23T13:33:00;12.65;;;12.02;;
9942;SDS011;5010;45.080;7.634;2023-03-23T13:35:33;13.82;;;13.13;;
9942;SDS011;5010;45.080;7.634;2023-03-23T13:38:10;14.88;;;13.00;;
9942;SDS011;5010;45.080;7.634;2023-03-23T13:40:41;13.27;;;12.57;;
9942;SDS011;5010;45.080;7.634;2023-03-23T13:43:09;13.60;;;12.88;;
9942;SDS011;5010;45.080;7.634;2023-03-23T13:45:43;14.45;;;13.75;;
9942;SDS011;5010;45.080;7.634;2023-03-23T13:48:19;12.48;;;11.90;;
9942;SDS011;5010;45.080;7.634;2023-03-23T13:50:50;15.40;;;12.65;;
9942;SDS011;5010;45.080;7.634;2023-03-23T13:53:23;10.80;;;10.20;;
9942;SDS011;5010;45.080;7.634;2023-03-23T13:56:04;11.07;;;8.93;;
9942;SDS011;5010;45.080;7.634;2023-03-23T13:58:44;10.77;;;9.65;;
9942;SDS011;5010;45.080;7.634;2023-03-23T14:01:15;11.65;;;10.80;;
9942;SDS011;5010;45.080;7.634;2023-03-23T14:03:45;13.52;;;12.82;;
9942;SDS011;5010;45.080;7.634;2023-03-23T14:06:15;12.63;;;11.98;;
9942;SDS011;5010;45.080;7.634;2023-03-23T14:08:45;13.32;;;12.63;;
9942;SDS011;5010;45.080;7.634;2023-03-23T14:11:18;12.63;;;11.80;;
9942;SDS011;5010;45.080;7.634;2023-03-23T14:13:57;12.40;;;11.68;;
9942;SDS011;5010;45.080;7.634;2023-03-23T14:16:32;12.23;;;10.95;;
9942;SDS011;5010;45.080;7.634;2023-03-23T14:19:04;11.02;;;10.35;;
9942;SDS011;5010;45.080;7.634;2023-03-23T14:21:41;13.30;;;12.25;;
9942;SDS011;5010;45.080;7.634;2023-03-23T14:24:16;12.60;;;11.50;;
9942;SDS011;5010;45.080;7.634;2023-03-23T14:26:47;11.68;;;11.07;;
9942;SDS011;5010;45.080;7.634;2023-03-23T14:29:17;13.52;;;11.10;;
9942;SDS011;5010;45.080;7.634;2023-03-23T14:31:47;13.18;;;12.43;;
9942;SDS011;5010;45.080;7.634;2023-03-23T14:34:19;11.20;;;10.55;;
9942;SDS011;5010;45.080;7.634;2023-03-23T14:36:48;11.90;;;11.30;;
9942;SDS011;5010;45.080;7.634;2023-03-23T14:39:18;11.50;;;10.88;;
9942;SDS011;5010;45.080;7.634;2023-03-23T14:41:48;12.60;;;11.95;;
9942;SDS011;5010;45.080;7.634;2023-03-23T14:44:18;11.43;;;10.88;;
9942;SDS011;5010;45.080;7.634;2023-03-23T14:46:50;13.18;;;12.15;;
9942;SDS011;5010;45.080;7.634;2023-03-23T14:49:27;11.15;;;10.50;;
9942;SDS011;5010;45.080;7.634;2023-03-23T14:52:01;13.02;;;11.20;;
9942;SDS011;5010;45.080;7.634;2023-03-23T14:54:31;12.73;;;12.02;;
9942;SDS011;5010;45.080;7.634;2023-03-23T14:57:02;12.32;;;11.20;;
9942;SDS011;5010;45.080;7.634;2023-03-23T14:59:38;12.05;;;11.35;;
9942;SDS011;5010;45.080;7.634;2023-03-23T15:02:09;11.82;;;11.23;;
9942;SDS011;5010;45.080;7.634;2023-03-23T15:04:38;15.02;;;11.02;;
9942;SDS011;5010;45.080;7.634;2023-03-23T15:07:05;11.80;;;11.20;;
9942;SDS011;5010;45.080;7.634;2023-03-23T15:09:34;12.30;;;10.98;;
9942;SDS011;5010;45.080;7.634;2023-03-23T15:12:05;11.90;;;11.25;;
9942;SDS011;5010;45.080;7.634;2023-03-23T15:14:33;11.82;;;11.23;;